N770XJ KBNA-KCLT
Flight info
| Callsign | N770XJ |
|---|---|
| Flight time | 0h 48m |
| Altitude | 41000 |
| Route | TAZMO4 BURME COMDY FILPZ4 |
| Aircraft | C750/M-SBDE3FGHRWXY/S |
Departure
| Time | 2026-05-04 22:50 |
|---|---|
| Airport | Nashville International Airport (KBNA) |
Arrival
| Time | 2026-05-04 23:38 |
|---|---|
| Airport | Charlotte Douglas International Airport (KCLT) |
| Time | Latitude | Longitude | Altitude | Speed | Heading |
|---|---|---|---|---|---|
| 2026-05-04 22:15 | 36.12057 | -86.67345 | 571 ft | 0 kts | 198° |
| 2026-05-04 22:27 | 36.12055 | -86.67347 | 571 ft | 1 kts | 214° |
| 2026-05-04 22:28 | 36.12056 | -86.67351 | 571 ft | 0 kts | 270° |
| 2026-05-04 22:28 | 36.12072 | -86.67368 | 573 ft | 0 kts | 328° |
| 2026-05-04 22:28 | 36.12075 | -86.67370 | 572 ft | 0 kts | 328° |
| 2026-05-04 22:32 | 36.12076 | -86.67371 | 572 ft | 1 kts | 328° |
| 2026-05-04 22:33 | 36.12090 | -86.67381 | 571 ft | 2 kts | 328° |
| 2026-05-04 22:34 | 36.12091 | -86.67382 | 571 ft | 1 kts | 328° |
| 2026-05-04 22:34 | 36.12113 | -86.67399 | 573 ft | 6 kts | 329° |
| 2026-05-04 22:34 | 36.12171 | -86.67399 | 575 ft | 11 kts | 2° |
| 2026-05-04 22:35 | 36.12263 | -86.67398 | 572 ft | 15 kts | 354° |
| 2026-05-04 22:35 | 36.12323 | -86.67472 | 572 ft | 9 kts | 314° |
| 2026-05-04 22:35 | 36.12358 | -86.67516 | 572 ft | 9 kts | 314° |
| 2026-05-04 22:35 | 36.12411 | -86.67588 | 572 ft | 13 kts | 312° |
| 2026-05-04 22:36 | 36.12426 | -86.67676 | 573 ft | 11 kts | 220° |
| 2026-05-04 22:36 | 36.12361 | -86.67708 | 571 ft | 6 kts | 209° |
| 2026-05-04 22:36 | 36.12352 | -86.67739 | 571 ft | 3 kts | 281° |
| 2026-05-04 22:36 | 36.12358 | -86.67764 | 571 ft | 3 kts | 287° |
| 2026-05-04 22:37 | 36.12364 | -86.67787 | 571 ft | 3 kts | 287° |
| 2026-05-04 22:37 | 36.12369 | -86.67806 | 574 ft | 2 kts | 291° |
| 2026-05-04 22:37 | 36.12374 | -86.67821 | 574 ft | 2 kts | 290° |
| 2026-05-04 22:37 | 36.12377 | -86.67832 | 573 ft | 1 kts | 290° |
| 2026-05-04 22:38 | 36.12379 | -86.67837 | 575 ft | 0 kts | 290° |
| 2026-05-04 22:40 | 36.12380 | -86.67842 | 572 ft | 1 kts | 290° |
| 2026-05-04 22:40 | 36.12386 | -86.67862 | 573 ft | 3 kts | 289° |
| 2026-05-04 22:40 | 36.12395 | -86.67898 | 576 ft | 5 kts | 288° |
| 2026-05-04 22:41 | 36.12407 | -86.67944 | 577 ft | 6 kts | 283° |
| 2026-05-04 22:41 | 36.12391 | -86.67974 | 572 ft | 4 kts | 195° |
| 2026-05-04 22:41 | 36.12246 | -86.68032 | 575 ft | 52 kts | 198° |
| 2026-05-04 22:41 | 36.12058 | -86.68107 | 572 ft | 13 kts | 197° |
| 2026-05-04 22:42 | 36.12006 | -86.68064 | 575 ft | 2 kts | 89° |
| 2026-05-04 22:42 | 36.12010 | -86.68044 | 572 ft | 3 kts | 68° |
| 2026-05-04 22:42 | 36.12020 | -86.68018 | 577 ft | 4 kts | 63° |
| 2026-05-04 22:42 | 36.12025 | -86.68007 | 573 ft | 0 kts | 63° |
| 2026-05-04 22:43 | 36.12026 | -86.68004 | 572 ft | 2 kts | 62° |
| 2026-05-04 22:43 | 36.12037 | -86.67979 | 575 ft | 5 kts | 58° |
| 2026-05-04 22:43 | 36.12074 | -86.67947 | 573 ft | 8 kts | 15° |
| 2026-05-04 22:43 | 36.12092 | -86.67941 | 571 ft | 0 kts | 17° |
| 2026-05-04 22:44 | 36.12106 | -86.67936 | 571 ft | 6 kts | 17° |
| 2026-05-04 22:44 | 36.12149 | -86.67919 | 571 ft | 0 kts | 18° |
| 2026-05-04 22:44 | 36.12160 | -86.67915 | 575 ft | 0 kts | 18° |
| 2026-05-04 22:47 | 36.12179 | -86.67907 | 572 ft | 6 kts | 18° |
| 2026-05-04 22:47 | 36.12228 | -86.67887 | 575 ft | 9 kts | 18° |
| 2026-05-04 22:48 | 36.12284 | -86.67865 | 572 ft | 7 kts | 18° |
| 2026-05-04 22:48 | 36.12331 | -86.67845 | 572 ft | 6 kts | 19° |
| 2026-05-04 22:48 | 36.12368 | -86.67835 | 572 ft | 5 kts | 352° |
| 2026-05-04 22:48 | 36.12385 | -86.67861 | 572 ft | 3 kts | 289° |
| 2026-05-04 22:49 | 36.12396 | -86.67900 | 572 ft | 6 kts | 288° |
| 2026-05-04 22:49 | 36.12400 | -86.67965 | 572 ft | 9 kts | 243° |
| 2026-05-04 22:49 | 36.12322 | -86.68003 | 572 ft | 27 kts | 198° |
| 2026-05-04 22:49 | 36.11821 | -86.68204 | 573 ft | 117 kts | 199° |
| 2026-05-04 22:50 | 36.10965 | -86.68560 | 881 ft | 141 kts | 201° |
| 2026-05-04 22:50 | 36.10018 | -86.68951 | 1632 ft | 138 kts | 198° |
| 2026-05-04 22:50 | 36.09086 | -86.69164 | 2418 ft | 141 kts | 194° |
| 2026-05-04 22:50 | 36.08106 | -86.69158 | 3231 ft | 148 kts | 175° |
| 2026-05-04 22:51 | 36.07037 | -86.68669 | 3597 ft | 179 kts | 161° |
| 2026-05-04 22:51 | 36.05806 | -86.68020 | 4061 ft | 204 kts | 162° |
| 2026-05-04 22:51 | 36.04488 | -86.67351 | 5147 ft | 206 kts | 163° |
| 2026-05-04 22:51 | 36.03155 | -86.66668 | 6245 ft | 208 kts | 161° |
| 2026-05-04 22:52 | 36.01813 | -86.65927 | 7160 ft | 218 kts | 161° |
| 2026-05-04 22:52 | 36.00302 | -86.65131 | 7260 ft | 255 kts | 161° |
| 2026-05-04 22:52 | 35.98793 | -86.63812 | 7034 ft | 277 kts | 135° |
| 2026-05-04 22:52 | 35.97916 | -86.61681 | 6972 ft | 287 kts | 108° |
| 2026-05-04 22:53 | 35.97741 | -86.59209 | 7019 ft | 291 kts | 95° |
| 2026-05-04 22:53 | 35.97717 | -86.56732 | 7025 ft | 294 kts | 94° |
| 2026-05-04 22:53 | 35.97678 | -86.54253 | 7452 ft | 288 kts | 95° |
| 2026-05-04 22:53 | 35.97605 | -86.51713 | 7603 ft | 297 kts | 95° |
| 2026-05-04 22:54 | 35.97543 | -86.49199 | 8015 ft | 293 kts | 95° |
| 2026-05-04 22:54 | 35.97588 | -86.46635 | 8727 ft | 308 kts | 83° |
| 2026-05-04 22:54 | 35.98190 | -86.44074 | 9665 ft | 312 kts | 73° |
| 2026-05-04 22:54 | 35.98864 | -86.41491 | 10372 ft | 324 kts | 74° |
| 2026-05-04 22:55 | 35.99530 | -86.38760 | 10609 ft | 350 kts | 75° |
| 2026-05-04 22:55 | 36.00241 | -86.35772 | 10685 ft | 376 kts | 75° |
| 2026-05-04 22:55 | 36.01010 | -86.32644 | 11299 ft | 381 kts | 74° |
| 2026-05-04 22:55 | 36.01790 | -86.29511 | 12050 ft | 383 kts | 74° |
| 2026-05-04 22:56 | 36.02563 | -86.26341 | 12747 ft | 387 kts | 74° |
| 2026-05-04 22:56 | 36.03336 | -86.23141 | 13450 ft | 390 kts | 74° |
| 2026-05-04 22:56 | 36.04119 | -86.19926 | 14098 ft | 393 kts | 73° |
| 2026-05-04 22:56 | 36.04915 | -86.16674 | 14656 ft | 398 kts | 73° |
| 2026-05-04 22:57 | 36.05715 | -86.13383 | 15221 ft | 402 kts | 73° |
| 2026-05-04 22:57 | 36.06508 | -86.10104 | 15787 ft | 405 kts | 73° |
| 2026-05-04 22:57 | 36.07003 | -86.06666 | 16262 ft | 410 kts | 89° |
| 2026-05-04 22:57 | 36.06839 | -86.03147 | 16889 ft | 411 kts | 96° |
| 2026-05-04 22:58 | 36.06579 | -85.99613 | 17485 ft | 416 kts | 97° |
| 2026-05-04 22:58 | 36.06328 | -85.96035 | 18102 ft | 421 kts | 96° |
| 2026-05-04 22:58 | 36.06078 | -85.92412 | 18652 ft | 425 kts | 96° |
| 2026-05-04 22:58 | 36.05818 | -85.88759 | 19253 ft | 429 kts | 96° |
| 2026-05-04 22:59 | 36.05555 | -85.85072 | 19857 ft | 432 kts | 96° |
| 2026-05-04 22:59 | 36.05294 | -85.81363 | 20472 ft | 435 kts | 96° |
| 2026-05-04 22:59 | 36.05029 | -85.77616 | 21065 ft | 439 kts | 95° |
| 2026-05-04 22:59 | 36.04764 | -85.73837 | 21641 ft | 444 kts | 95° |
| 2026-05-04 23:00 | 36.04505 | -85.70072 | 22239 ft | 447 kts | 95° |
| 2026-05-04 23:00 | 36.04238 | -85.66232 | 22814 ft | 451 kts | 95° |
| 2026-05-04 23:00 | 36.03962 | -85.62352 | 23363 ft | 456 kts | 95° |
| 2026-05-04 23:00 | 36.03683 | -85.58433 | 23871 ft | 459 kts | 95° |
| 2026-05-04 23:01 | 36.03404 | -85.54492 | 24361 ft | 462 kts | 95° |
| 2026-05-04 23:01 | 36.03124 | -85.50520 | 24844 ft | 465 kts | 95° |
| 2026-05-04 23:01 | 36.02835 | -85.46523 | 25314 ft | 469 kts | 95° |
| 2026-05-04 23:01 | 36.02539 | -85.42505 | 25776 ft | 472 kts | 95° |
| 2026-05-04 23:02 | 36.02247 | -85.38453 | 26241 ft | 475 kts | 95° |
| 2026-05-04 23:02 | 36.01954 | -85.34380 | 26725 ft | 478 kts | 95° |
| 2026-05-04 23:02 | 36.01658 | -85.30333 | 27198 ft | 481 kts | 95° |
| 2026-05-04 23:02 | 36.01352 | -85.26200 | 27668 ft | 485 kts | 95° |
| 2026-05-04 23:03 | 36.01044 | -85.22041 | 28147 ft | 488 kts | 95° |
| 2026-05-04 23:03 | 36.00736 | -85.17860 | 28606 ft | 491 kts | 95° |
| 2026-05-04 23:03 | 36.00422 | -85.13646 | 29068 ft | 494 kts | 95° |
| 2026-05-04 23:03 | 36.00103 | -85.09399 | 29503 ft | 498 kts | 95° |
| 2026-05-04 23:04 | 35.99782 | -85.05136 | 29951 ft | 500 kts | 95° |
| 2026-05-04 23:04 | 35.99538 | -85.00836 | 30317 ft | 503 kts | 94° |
| 2026-05-04 23:04 | 35.99278 | -84.96512 | 30704 ft | 506 kts | 94° |
| 2026-05-04 23:04 | 35.98998 | -84.92173 | 31106 ft | 507 kts | 94° |
| 2026-05-04 23:05 | 35.98736 | -84.87843 | 31679 ft | 505 kts | 94° |
| 2026-05-04 23:05 | 35.98490 | -84.83584 | 32209 ft | 504 kts | 94° |
| 2026-05-04 23:05 | 35.98229 | -84.79271 | 32757 ft | 503 kts | 95° |
| 2026-05-04 23:05 | 35.97957 | -84.74968 | 33323 ft | 502 kts | 95° |
| 2026-05-04 23:06 | 35.97689 | -84.70673 | 33879 ft | 501 kts | 95° |
| 2026-05-04 23:06 | 35.97428 | -84.66392 | 34373 ft | 501 kts | 95° |
| 2026-05-04 23:06 | 35.97162 | -84.62100 | 34773 ft | 502 kts | 95° |
| 2026-05-04 23:06 | 35.96888 | -84.57796 | 35214 ft | 503 kts | 95° |
| 2026-05-04 23:07 | 35.96614 | -84.53490 | 35681 ft | 503 kts | 94° |
| 2026-05-04 23:07 | 35.96343 | -84.49184 | 36144 ft | 503 kts | 94° |
| 2026-05-04 23:07 | 35.96069 | -84.44876 | 36585 ft | 504 kts | 94° |
| 2026-05-04 23:07 | 35.95794 | -84.40616 | 37025 ft | 505 kts | 94° |
| 2026-05-04 23:08 | 35.95514 | -84.36302 | 37465 ft | 505 kts | 94° |
| 2026-05-04 23:08 | 35.95233 | -84.31977 | 37923 ft | 506 kts | 94° |
| 2026-05-04 23:08 | 35.94951 | -84.27652 | 38386 ft | 506 kts | 94° |
| 2026-05-04 23:08 | 35.94666 | -84.23322 | 38790 ft | 507 kts | 94° |
| 2026-05-04 23:09 | 35.94379 | -84.18985 | 39152 ft | 507 kts | 94° |
| 2026-05-04 23:09 | 35.94091 | -84.14648 | 39524 ft | 508 kts | 94° |
| 2026-05-04 23:09 | 35.93800 | -84.10299 | 39895 ft | 508 kts | 94° |
| 2026-05-04 23:09 | 35.93508 | -84.05950 | 40269 ft | 509 kts | 94° |
| 2026-05-04 23:10 | 35.93218 | -84.01660 | 40647 ft | 509 kts | 94° |
| 2026-05-04 23:10 | 35.92922 | -83.97301 | 40970 ft | 512 kts | 94° |
| 2026-05-04 23:10 | 35.92312 | -83.88387 | 40969 ft | 531 kts | 94° |
| 2026-05-04 23:11 | 35.91673 | -83.79160 | 40970 ft | 547 kts | 94° |
| 2026-05-04 23:11 | 35.91010 | -83.69697 | 40968 ft | 559 kts | 94° |
| 2026-05-04 23:12 | 35.90329 | -83.60088 | 40962 ft | 564 kts | 94° |
| 2026-05-04 23:12 | 35.89636 | -83.50438 | 40954 ft | 565 kts | 95° |
| 2026-05-04 23:13 | 35.88210 | -83.40994 | 40954 ft | 565 kts | 106° |
| 2026-05-04 23:13 | 35.85957 | -83.31711 | 40966 ft | 565 kts | 106° |
| 2026-05-04 23:14 | 35.84980 | -83.27046 | 40969 ft | 552 kts | 104° |
| 2026-05-04 23:14 | 35.84043 | -83.22522 | 40951 ft | 545 kts | 105° |
| 2026-05-04 23:14 | 35.83012 | -83.18052 | 40944 ft | 533 kts | 107° |
| 2026-05-04 23:14 | 35.81999 | -83.13768 | 40776 ft | 510 kts | 107° |
| 2026-05-04 23:15 | 35.81071 | -83.09576 | 39450 ft | 510 kts | 105° |
| 2026-05-04 23:15 | 35.80148 | -83.05217 | 37204 ft | 543 kts | 105° |
| 2026-05-04 23:15 | 35.79155 | -83.00710 | 36282 ft | 544 kts | 107° |
| 2026-05-04 23:15 | 35.78116 | -82.96182 | 35715 ft | 552 kts | 107° |
| 2026-05-04 23:16 | 35.77099 | -82.91680 | 35155 ft | 554 kts | 106° |
| 2026-05-04 23:16 | 35.76097 | -82.87116 | 34583 ft | 545 kts | 106° |
| 2026-05-04 23:16 | 35.75125 | -82.82703 | 33855 ft | 523 kts | 107° |
| 2026-05-04 23:16 | 35.74167 | -82.78477 | 33035 ft | 504 kts | 107° |
| 2026-05-04 23:17 | 35.73233 | -82.74397 | 32387 ft | 486 kts | 107° |
| 2026-05-04 23:17 | 35.72340 | -82.70428 | 31731 ft | 477 kts | 106° |
| 2026-05-04 23:17 | 35.71465 | -82.66520 | 31097 ft | 471 kts | 106° |
| 2026-05-04 23:17 | 35.70584 | -82.62651 | 30479 ft | 467 kts | 107° |
| 2026-05-04 23:18 | 35.69701 | -82.58817 | 29854 ft | 464 kts | 107° |
| 2026-05-04 23:18 | 35.68833 | -82.55020 | 29149 ft | 459 kts | 106° |
| 2026-05-04 23:18 | 35.67992 | -82.51318 | 28479 ft | 453 kts | 106° |
| 2026-05-04 23:18 | 35.67145 | -82.47613 | 27790 ft | 448 kts | 107° |
| 2026-05-04 23:19 | 35.66302 | -82.43951 | 27134 ft | 444 kts | 106° |
| 2026-05-04 23:19 | 35.65462 | -82.40306 | 26504 ft | 440 kts | 107° |
| 2026-05-04 23:19 | 35.64639 | -82.36720 | 25890 ft | 433 kts | 106° |
| 2026-05-04 23:19 | 35.63826 | -82.33180 | 25277 ft | 428 kts | 106° |
| 2026-05-04 23:20 | 35.63017 | -82.29680 | 24681 ft | 423 kts | 106° |
| 2026-05-04 23:20 | 35.62215 | -82.26216 | 24096 ft | 419 kts | 106° |
| 2026-05-04 23:20 | 35.61422 | -82.22791 | 23511 ft | 415 kts | 106° |
| 2026-05-04 23:20 | 35.60636 | -82.19400 | 22837 ft | 410 kts | 106° |
| 2026-05-04 23:21 | 35.59859 | -82.16055 | 22181 ft | 405 kts | 106° |
| 2026-05-04 23:21 | 35.59088 | -82.12743 | 21533 ft | 401 kts | 106° |
| 2026-05-04 23:21 | 35.58336 | -82.09511 | 20905 ft | 396 kts | 106° |
| 2026-05-04 23:21 | 35.57589 | -82.06272 | 20283 ft | 392 kts | 105° |
| 2026-05-04 23:22 | 35.57018 | -82.03021 | 19670 ft | 388 kts | 102° |
| 2026-05-04 23:22 | 35.56425 | -81.99807 | 19081 ft | 383 kts | 103° |
| 2026-05-04 23:22 | 35.55818 | -81.96651 | 18499 ft | 378 kts | 103° |
| 2026-05-04 23:22 | 35.55242 | -81.93511 | 17856 ft | 376 kts | 102° |
| 2026-05-04 23:23 | 35.54690 | -81.90390 | 17198 ft | 372 kts | 102° |
| 2026-05-04 23:23 | 35.54132 | -81.87303 | 16557 ft | 368 kts | 103° |
| 2026-05-04 23:23 | 35.53568 | -81.84253 | 15926 ft | 363 kts | 103° |
| 2026-05-04 23:23 | 35.53021 | -81.81278 | 15301 ft | 351 kts | 103° |
| 2026-05-04 23:24 | 35.52498 | -81.78395 | 14690 ft | 342 kts | 103° |
| 2026-05-04 23:24 | 35.51983 | -81.75582 | 14085 ft | 334 kts | 103° |
| 2026-05-04 23:24 | 35.51473 | -81.72818 | 13454 ft | 330 kts | 103° |
| 2026-05-04 23:24 | 35.50983 | -81.70128 | 12807 ft | 325 kts | 103° |
| 2026-05-04 23:25 | 35.50495 | -81.67433 | 12159 ft | 321 kts | 104° |
| 2026-05-04 23:25 | 35.50012 | -81.64788 | 11827 ft | 316 kts | 104° |
| 2026-05-04 23:25 | 35.49527 | -81.62146 | 11415 ft | 318 kts | 104° |
| 2026-05-04 23:25 | 35.49103 | -81.59497 | 10977 ft | 316 kts | 97° |
| 2026-05-04 23:26 | 35.49264 | -81.56827 | 10751 ft | 315 kts | 83° |
| 2026-05-04 23:26 | 35.49550 | -81.54156 | 10524 ft | 316 kts | 83° |
| 2026-05-04 23:26 | 35.49810 | -81.51485 | 10266 ft | 315 kts | 84° |
| 2026-05-04 23:26 | 35.50060 | -81.48816 | 9995 ft | 314 kts | 84° |
| 2026-05-04 23:27 | 35.50328 | -81.46173 | 9707 ft | 312 kts | 84° |
| 2026-05-04 23:27 | 35.50578 | -81.43574 | 9426 ft | 310 kts | 84° |
| 2026-05-04 23:27 | 35.50820 | -81.40956 | 9152 ft | 308 kts | 84° |
| 2026-05-04 23:27 | 35.51075 | -81.38353 | 8889 ft | 306 kts | 84° |
| 2026-05-04 23:28 | 35.51332 | -81.35768 | 8615 ft | 304 kts | 84° |
| 2026-05-04 23:28 | 35.51582 | -81.33195 | 8357 ft | 303 kts | 84° |
| 2026-05-04 23:28 | 35.51826 | -81.30644 | 8091 ft | 299 kts | 84° |
| 2026-05-04 23:28 | 35.52070 | -81.28112 | 7835 ft | 298 kts | 84° |
| 2026-05-04 23:29 | 35.52310 | -81.25611 | 7570 ft | 289 kts | 83° |
| 2026-05-04 23:29 | 35.52539 | -81.23235 | 7321 ft | 273 kts | 84° |
| 2026-05-04 23:29 | 35.52755 | -81.20972 | 7076 ft | 260 kts | 84° |
| 2026-05-04 23:29 | 35.52936 | -81.18852 | 6983 ft | 247 kts | 89° |
| 2026-05-04 23:30 | 35.52439 | -81.16882 | 6918 ft | 242 kts | 125° |
| 2026-05-04 23:30 | 35.51379 | -81.15220 | 7034 ft | 262 kts | 132° |
| 2026-05-04 23:30 | 35.50228 | -81.13517 | 6870 ft | 254 kts | 132° |
| 2026-05-04 23:30 | 35.49061 | -81.11790 | 6249 ft | 269 kts | 132° |
| 2026-05-04 23:31 | 35.47885 | -81.10053 | 5819 ft | 261 kts | 132° |
| 2026-05-04 23:31 | 35.46749 | -81.08356 | 5372 ft | 251 kts | 132° |
| 2026-05-04 23:31 | 35.45669 | -81.06734 | 4929 ft | 247 kts | 132° |
| 2026-05-04 23:31 | 35.44597 | -81.05107 | 4474 ft | 245 kts | 132° |
| 2026-05-04 23:32 | 35.43532 | -81.03487 | 4017 ft | 244 kts | 132° |
| 2026-05-04 23:32 | 35.42477 | -81.01871 | 3568 ft | 241 kts | 132° |
| 2026-05-04 23:32 | 35.41443 | -81.00264 | 3119 ft | 239 kts | 132° |
| 2026-05-04 23:32 | 35.40433 | -80.98683 | 3007 ft | 236 kts | 132° |
| 2026-05-04 23:33 | 35.39417 | -80.97099 | 3017 ft | 237 kts | 132° |
| 2026-05-04 23:33 | 35.38392 | -80.95513 | 3009 ft | 238 kts | 132° |
| 2026-05-04 23:33 | 35.37184 | -80.94191 | 2940 ft | 230 kts | 158° |
| 2026-05-04 23:33 | 35.35614 | -80.94079 | 2959 ft | 222 kts | 193° |
| 2026-05-04 23:34 | 35.34198 | -80.94461 | 3002 ft | 198 kts | 190° |
| 2026-05-04 23:34 | 35.32909 | -80.94504 | 2756 ft | 171 kts | 178° |
| 2026-05-04 23:34 | 35.31757 | -80.94415 | 2533 ft | 157 kts | 178° |
| 2026-05-04 23:34 | 35.30782 | -80.94326 | 2341 ft | 126 kts | 178° |
| 2026-05-04 23:35 | 35.29948 | -80.94251 | 2210 ft | 120 kts | 178° |
| 2026-05-04 23:35 | 35.29119 | -80.94171 | 2021 ft | 118 kts | 179° |
| 2026-05-04 23:35 | 35.28328 | -80.94106 | 1840 ft | 108 kts | 179° |
| 2026-05-04 23:35 | 35.27574 | -80.94050 | 1707 ft | 110 kts | 177° |
| 2026-05-04 23:36 | 35.27049 | -80.94004 | 1606 ft | 117 kts | 178° |
| 2026-05-04 23:36 | 35.25955 | -80.93923 | 1409 ft | 120 kts | 182° |
| 2026-05-04 23:36 | 35.25133 | -80.93862 | 1249 ft | 118 kts | 177° |
| 2026-05-04 23:36 | 35.24335 | -80.93780 | 1100 ft | 113 kts | 180° |
| 2026-05-04 23:37 | 35.23558 | -80.93722 | 959 ft | 111 kts | 178° |
| 2026-05-04 23:37 | 35.22797 | -80.93649 | 833 ft | 109 kts | 178° |
| 2026-05-04 23:37 | 35.22298 | -80.93604 | 763 ft | 106 kts | 178° |
| 2026-05-04 23:37 | 35.21414 | -80.93531 | 732 ft | 90 kts | 175° |
| 2026-05-04 23:38 | 35.21070 | -80.93497 | 731 ft | 59 kts | 176° |
| 2026-05-04 23:38 | 35.20812 | -80.93475 | 732 ft | 17 kts | 167° |
| 2026-05-04 23:38 | 35.20787 | -80.93309 | 729 ft | 17 kts | 85° |
| 2026-05-04 23:38 | 35.20798 | -80.93230 | 731 ft | 1 kts | 24° |
| 2026-05-04 23:39 | 35.20807 | -80.93229 | 731 ft | 1 kts | 9° |
| 2026-05-04 23:39 | 35.20818 | -80.93226 | 731 ft | 4 kts | 8° |
| 2026-05-04 23:39 | 35.20845 | -80.93227 | 731 ft | 4 kts | 328° |
| 2026-05-04 23:39 | 35.20846 | -80.93261 | 731 ft | 1 kts | 262° |
| 2026-05-04 23:40 | 35.20843 | -80.93263 | 731 ft | 1 kts | 218° |
| 2026-05-04 23:40 | 35.20839 | -80.93261 | 731 ft | 0 kts | 176° |
| 2026-05-04 23:40 | 35.20838 | -80.93261 | 731 ft | 0 kts | 176° |